Time;durP1;ratioP1;P1;durP2;ratioP2;P2;SDS_P1;SDS_P2;PMS_P1;PMS_P2;Temp;Humidity;BMP_temperature;BMP_pressure;BME280_temperature;BME280_humidity;BME280_pressure;Samples;Min_cycle;Max_cycle;Signal;HPM_P1;HPM_P2
2022/07/20 00:01:36;;;;;;;4.00;2.83;;;28.10;42.30;;;;;;5070352;28;20028;-64
2022/07/20 00:04:02;;;;;;;4.97;2.80;;;28.10;42.50;;;;;;5054548;28;20463;-63
2022/07/20 00:06:28;;;;;;;4.43;2.25;;;28.10;42.70;;;;;;5070995;28;20021;-63
2022/07/20 00:11:38;;;;;;;4.32;2.22;;;27.90;42.90;;;;;;5071401;28;21414;-63
2022/07/20 00:14:05;;;;;;;5.97;2.85;;;27.90;43.00;;;;;;5083649;28;20017;-63
2022/07/20 00:16:32;;;;;;;3.70;2.90;;;27.80;43.00;;;;;;5068218;28;20025;-63
2022/07/20 00:18:58;;;;;;;4.03;2.42;;;27.80;43.10;;;;;;5070852;28;20060;-63
2022/07/20 00:21:24;;;;;;;6.70;2.90;;;27.70;43.10;;;;;;5069789;28;20031;-63
2022/07/20 00:23:50;;;;;;;5.45;2.85;;;27.70;43.30;;;;;;5072455;28;20016;-63
2022/07/20 00:26:16;;;;;;;5.07;2.47;;;27.70;43.30;;;;;;5073459;28;20041;-63
2022/07/20 00:28:42;;;;;;;5.25;2.15;;;27.60;43.60;;;;;;5072447;28;20472;-63
2022/07/20 00:31:08;;;;;;;6.35;2.83;;;27.50;43.60;;;;;;5070347;28;20028;-63
2022/07/20 00:33:34;;;;;;;5.32;2.80;;;27.50;43.80;;;;;;5071130;28;20028;-63
2022/07/20 00:35:59;;;;;;;5.32;2.90;;;27.40;44.00;;;;;;5070805;28;20017;-63
2022/07/20 00:38:25;;;;;;;3.58;2.55;;;27.30;44.20;;;;;;5073329;28;20028;-63
2022/07/20 00:40:50;;;;;;;6.45;2.88;;;27.20;44.20;;;;;;5072564;28;20381;-63
2022/07/20 00:43:16;;;;;;;5.15;3.00;;;27.20;44.50;;;;;;5072321;28;20021;-63
2022/07/20 00:45:41;;;;;;;4.32;2.88;;;27.20;44.80;;;;;;5069622;28;20020;-64
2022/07/20 00:48:07;;;;;;;7.40;2.65;;;27.10;44.80;;;;;;5069569;28;20154;-63
2022/07/20 00:50:32;;;;;;;7.15;2.80;;;27.00;45.10;;;;;;5066948;28;20063;-63
2022/07/20 00:52:59;;;;;;;3.72;2.60;;;27.00;45.10;;;;;;5068784;28;20387;-63
2022/07/20 00:55:25;;;;;;;5.07;2.53;;;26.90;45.30;;;;;;5068499;28;20361;-64
2022/07/20 00:57:51;;;;;;;3.90;2.70;;;26.80;45.30;;;;;;5070598;28;20504;-63
2022/07/20 01:00:16;;;;;;;6.05;3.00;;;26.80;45.40;;;;;;5073256;28;20150;-63
2022/07/20 01:02:42;;;;;;;5.35;3.00;;;26.80;45.60;;;;;;5070606;28;20032;-63
2022/07/20 01:05:13;;;;;;;5.72;3.00;;;26.70;45.60;;;;;;5069843;28;20473;-64
2022/07/20 01:07:44;;;;;;;4.80;3.30;;;26.60;45.80;;;;;;5070935;28;20033;-63
2022/07/20 01:10:10;;;;;;;4.60;2.63;;;26.50;45.90;;;;;;5069906;28;20048;-63
2022/07/20 01:12:37;;;;;;;3.90;2.42;;;26.50;46.20;;;;;;5068935;28;20384;-63
2022/07/20 01:15:04;;;;;;;6.28;2.85;;;26.50;46.20;;;;;;5070413;28;20025;-63
2022/07/20 01:17:30;;;;;;;4.65;2.60;;;26.40;46.20;;;;;;5071042;28;20035;-63
2022/07/20 01:19:55;;;;;;;4.75;3.38;;;26.40;46.30;;;;;;5069545;28;20111;-63
2022/07/20 01:22:21;;;;;;;4.65;3.10;;;26.40;46.40;;;;;;5067662;28;20424;-63
2022/07/20 01:24:46;;;;;;;4.78;2.90;;;26.30;46.60;;;;;;5069181;28;20024;-63
2022/07/20 01:27:12;;;;;;;5.75;3.15;;;26.20;47.00;;;;;;5068253;28;20032;-63
2022/07/20 01:29:38;;;;;;;5.97;2.80;;;26.00;47.40;;;;;;5070303;28;20025;-63
2022/07/20 01:32:03;;;;;;;3.80;2.88;;;25.90;47.50;;;;;;5067608;28;20091;-63
2022/07/20 01:34:29;;;;;;;4.68;2.75;;;25.80;47.70;;;;;;5069423;28;20020;-63
2022/07/20 01:36:54;;;;;;;4.88;2.78;;;25.80;47.90;;;;;;5068254;28;20071;-63
2022/07/20 01:39:20;;;;;;;4.78;2.47;;;25.70;47.90;;;;;;5069012;28;20045;-63
2022/07/20 01:41:52;;;;;;;8.38;3.10;;;25.70;48.00;;;;;;5069457;28;20029;-63
2022/07/20 01:44:21;;;;;;;3.38;3.08;;;25.60;48.20;;;;;;5068831;28;20020;-63
2022/07/20 01:46:50;;;;;;;5.80;2.90;;;25.50;48.20;;;;;;5081014;28;20220;-63
2022/07/20 01:49:16;;;;;;;5.20;2.95;;;25.50;48.20;;;;;;5068750;28;20107;-63
2022/07/20 01:51:42;;;;;;;5.32;3.05;;;25.50;48.40;;;;;;5067448;28;20142;-63
2022/07/20 01:54:08;;;;;;;5.38;2.70;;;25.50;48.50;;;;;;5070845;28;20023;-63
2022/07/20 01:56:34;;;;;;;4.90;2.53;;;25.40;48.70;;;;;;5049977;28;20025;-63
2022/07/20 01:58:59;;;;;;;5.63;2.67;;;25.40;48.70;;;;;;5070541;28;20563;-63
2022/07/20 02:01:25;;;;;;;4.25;2.50;;;25.40;48.60;;;;;;5067422;28;20476;-63
2022/07/20 02:03:50;;;;;;;6.63;2.83;;;25.40;48.70;;;;;;5069605;28;20051;-63
2022/07/20 02:06:16;;;;;;;4.88;2.92;;;25.30;49.00;;;;;;5068114;28;20024;-62
2022/07/20 02:08:41;;;;;;;3.28;2.58;;;25.20;49.40;;;;;;5067816;28;20477;-63
2022/07/20 02:11:07;;;;;;;5.43;3.42;;;25.10;49.90;;;;;;5069604;28;20074;-63
2022/07/20 02:13:35;;;;;;;6.40;4.13;;;25.00;50.80;;;;;;5069387;28;20551;-63
2022/07/20 02:16:17;;;;;;;6.75;4.13;;;24.80;52.00;;;;;;5066373;28;20100;-62
2022/07/20 02:18:51;;;;;;;5.00;3.22;;;24.60;52.30;;;;;;5066986;28;20028;-63
2022/07/20 02:21:18;;;;;;;5.38;3.40;;;24.60;52.10;;;;;;5053203;28;20027;-63
2022/07/20 02:23:45;;;;;;;5.50;3.08;;;24.50;51.70;;;;;;5067720;28;20028;-62
2022/07/20 02:26:11;;;;;;;4.50;2.83;;;24.60;51.60;;;;;;5069126;28;20017;-62
2022/07/20 02:28:37;;;;;;;6.15;2.03;;;24.60;51.70;;;;;;5067146;28;20023;-63
2022/07/20 02:31:03;;;;;;;4.25;2.30;;;24.70;51.80;;;;;;5085582;28;20066;-63
2022/07/20 02:33:29;;;;;;;4.18;2.50;;;24.70;51.90;;;;;;5070769;28;20074;-65
2022/07/20 02:35:54;;;;;;;2.00;1.80;;;24.70;52.00;;;;;;5066060;28;20029;-63
2022/07/20 02:38:20;;;;;;;3.17;2.33;;;24.70;52.10;;;;;;5069234;28;20034;-63
2022/07/20 02:40:46;;;;;;;4.68;3.10;;;24.70;52.30;;;;;;5066847;28;20028;-63
2022/07/20 02:43:11;;;;;;;4.85;3.50;;;24.60;52.20;;;;;;5068478;28;20032;-63
2022/07/20 02:45:37;;;;;;;5.03;2.70;;;24.60;52.10;;;;;;5070205;28;20025;-62
2022/07/20 02:48:03;;;;;;;4.47;2.65;;;24.50;52.00;;;;;;5068093;28;20020;-63
2022/07/20 02:50:30;;;;;;;5.18;2.47;;;24.50;52.00;;;;;;5066830;28;20069;-62
2022/07/20 02:52:56;;;;;;;6.85;3.00;;;24.50;52.30;;;;;;5073408;28;20484;-62
2022/07/20 02:55:21;;;;;;;4.70;3.60;;;24.50;52.30;;;;;;5073502;28;20103;-62
2022/07/20 02:57:47;;;;;;;4.95;3.40;;;24.40;51.90;;;;;;5073364;28;20500;-63
2022/07/20 03:00:13;;;;;;;5.03;3.40;;;24.30;51.90;;;;;;5072187;28;20032;-62
2022/07/20 03:02:39;;;;;;;5.18;3.55;;;24.30;52.00;;;;;;5072842;28;20046;-62
2022/07/20 03:05:04;;;;;;;5.63;2.95;;;24.20;52.10;;;;;;5071094;28;20109;-62
2022/07/20 03:07:30;;;;;;;4.55;2.75;;;24.10;52.30;;;;;;5073429;28;20484;-62
2022/07/20 03:09:55;;;;;;;4.40;2.60;;;24.10;52.50;;;;;;5071536;28;20435;-62
2022/07/20 03:12:21;;;;;;;6.00;2.83;;;24.00;52.50;;;;;;5071995;28;20105;-62
2022/07/20 03:14:47;;;;;;;5.60;2.65;;;24.00;52.60;;;;;;5068994;28;20091;-62
2022/07/20 03:17:12;;;;;;;6.03;3.20;;;23.90;52.70;;;;;;5073310;28;20035;-62
2022/07/20 03:19:38;;;;;;;7.53;3.42;;;23.90;52.90;;;;;;5072171;28;20099;-62
2022/07/20 03:22:03;;;;;;;7.80;4.07;;;23.90;53.30;;;;;;5073536;28;20051;-63
2022/07/20 03:24:29;;;;;;;4.03;3.40;;;23.70;53.70;;;;;;5070932;28;20502;-62
2022/07/20 03:26:54;;;;;;;3.60;2.85;;;23.70;53.80;;;;;;5073109;28;20089;-62
2022/07/20 03:29:20;;;;;;;4.82;3.22;;;23.70;53.60;;;;;;5071990;28;20024;-62
2022/07/20 03:31:46;;;;;;;3.75;2.60;;;23.70;53.40;;;;;;5071963;28;20082;-62
2022/07/20 03:34:11;;;;;;;5.75;3.17;;;23.70;53.20;;;;;;5072394;28;20056;-62
2022/07/20 03:36:37;;;;;;;5.63;3.13;;;23.80;53.00;;;;;;5071138;28;20035;-62
2022/07/20 03:39:13;;;;;;;4.47;3.17;;;23.80;53.00;;;;;;5071440;28;20021;-62
2022/07/20 03:41:38;;;;;;;4.50;2.92;;;23.70;52.90;;;;;;5071268;28;20025;-62
2022/07/20 03:44:04;;;;;;;5.53;3.00;;;23.70;53.00;;;;;;5071484;28;20492;-63
2022/07/20 03:46:29;;;;;;;5.38;3.53;;;23.70;53.10;;;;;;5071175;28;20115;-62
2022/07/20 03:48:55;;;;;;;7.68;4.72;;;23.70;53.40;;;;;;5069171;28;20025;-62
2022/07/20 03:51:20;;;;;;;7.07;5.50;;;23.70;53.90;;;;;;5071262;28;20043;-62
2022/07/20 03:53:46;;;;;;;9.40;6.13;;;23.60;54.60;;;;;;5070105;28;20012;-62
2022/07/20 03:56:12;;;;;;;14.50;9.60;;;23.60;55.20;;;;;;5071452;28;20020;-62
2022/07/20 03:58:37;;;;;;;16.48;10.18;;;23.60;56.90;;;;;;5069982;28;20613;-62
2022/07/20 04:01:03;;;;;;;14.50;10.82;;;23.60;57.90;;;;;;5068501;28;20035;-62
2022/07/20 04:03:28;;;;;;;16.50;11.98;;;23.60;58.70;;;;;;5065216;28;20118;-62
2022/07/20 04:05:54;;;;;;;16.52;12.35;;;23.60;59.70;;;;;;5067884;28;20108;-62
2022/07/20 04:08:43;;;;;;;16.98;14.15;;;23.60;60.60;;;;;;5068497;28;20590;-62
2022/07/20 04:11:08;;;;;;;19.73;14.52;;;23.60;61.40;;;;;;5064409;28;20021;-62
2022/07/20 04:13:34;;;;;;;17.75;13.68;;;23.50;62.10;;;;;;5068409;28;20533;-62
2022/07/20 04:15:59;;;;;;;17.63;13.27;;;23.50;62.70;;;;;;5066809;28;20143;-62
2022/07/20 04:18:25;;;;;;;21.55;15.07;;;23.40;63.10;;;;;;5069873;28;20025;-62
2022/07/20 04:20:50;;;;;;;21.33;14.77;;;23.40;63.70;;;;;;5066545;28;20159;-62
2022/07/20 04:23:16;;;;;;;20.83;16.35;;;23.40;64.20;;;;;;5067593;28;20032;-62
2022/07/20 04:25:41;;;;;;;21.52;15.68;;;23.40;65.20;;;;;;5067514;28;20047;-62
2022/07/20 04:28:07;;;;;;;22.80;16.38;;;23.40;65.50;;;;;;5069456;28;20032;-62
2022/07/20 04:30:35;;;;;;;18.98;15.40;;;23.40;66.00;;;;;;5067445;28;20044;-62
2022/07/20 04:33:01;;;;;;;21.20;15.30;;;23.40;66.90;;;;;;5068438;28;20768;-62
2022/07/20 04:35:26;;;;;;;20.30;15.77;;;23.30;66.30;;;;;;5067359;28;20492;-62
2022/07/20 04:37:52;;;;;;;18.17;15.40;;;23.30;66.60;;;;;;5067913;28;20028;-62
2022/07/20 04:40:17;;;;;;;17.30;15.20;;;23.30;66.80;;;;;;5069430;28;20030;-62
2022/07/20 04:42:43;;;;;;;18.08;15.63;;;23.30;67.10;;;;;;5066120;28;20039;-62
2022/07/20 04:45:09;;;;;;;23.83;17.67;;;23.40;67.50;;;;;;5067762;28;20042;-62
2022/07/20 04:47:35;;;;;;;22.20;18.02;;;23.40;68.10;;;;;;5069355;28;20477;-62
2022/07/20 04:50:00;;;;;;;23.38;18.45;;;23.40;68.50;;;;;;5066510;28;20029;-62
2022/07/20 04:52:26;;;;;;;25.80;19.85;;;23.40;69.00;;;;;;5069080;28;20016;-62
2022/07/20 04:54:51;;;;;;;24.00;18.27;;;23.40;69.60;;;;;;5066249;28;20013;-62
2022/07/20 04:57:17;;;;;;;28.45;20.75;;;23.40;69.70;;;;;;5069067;28;20024;-62
2022/07/20 04:59:42;;;;;;;26.52;22.90;;;23.40;70.60;;;;;;5068242;28;20524;-62
2022/07/20 05:02:08;;;;;;;30.00;21.58;;;23.40;71.70;;;;;;5068447;28;20033;-62
2022/07/20 05:04:33;;;;;;;23.95;20.90;;;23.40;71.80;;;;;;5066818;28;20036;-62
2022/07/20 05:06:59;;;;;;;22.13;19.02;;;23.40;71.70;;;;;;5068952;28;20032;-62
2022/07/20 05:09:25;;;;;;;21.98;18.65;;;23.40;71.70;;;;;;5065074;28;20027;-62
2022/07/20 05:11:51;;;;;;;21.45;18.60;;;23.50;71.60;;;;;;5067549;28;20024;-62
2022/07/20 05:14:16;;;;;;;23.98;19.17;;;23.60;71.60;;;;;;5067581;28;20029;-62
2022/07/20 05:16:42;;;;;;;24.40;19.58;;;23.70;71.80;;;;;;5068650;28;20119;-62
2022/07/20 05:19:08;;;;;;;23.52;19.27;;;23.70;71.70;;;;;;5066580;28;20076;-63
2022/07/20 05:21:34;;;;;;;21.85;18.67;;;23.70;71.90;;;;;;5066128;28;20020;-62
2022/07/20 05:24:00;;;;;;;32.13;23.17;;;23.70;72.20;;;;;;5068275;28;20028;-62
2022/07/20 05:26:25;;;;;;;27.13;21.17;;;23.70;73.00;;;;;;5067531;28;20064;-62
2022/07/20 05:28:51;;;;;;;27.20;20.52;;;23.70;73.00;;;;;;5066822;28;20853;-63
2022/07/20 05:31:18;;;;;;;27.13;21.13;;;23.80;73.00;;;;;;5065954;28;20023;-62
2022/07/20 05:33:44;;;;;;;21.63;19.27;;;23.80;73.30;;;;;;5069360;28;20028;-62
2022/07/20 05:36:09;;;;;;;30.25;20.13;;;23.80;73.20;;;;;;5065976;28;20024;-62
2022/07/20 05:38:36;;;;;;;22.23;19.25;;;23.90;73.30;;;;;;5068137;28;20432;-62
2022/07/20 05:41:01;;;;;;;22.85;18.90;;;23.90;73.00;;;;;;5066642;28;20020;-62
2022/07/20 05:43:27;;;;;;;21.40;17.75;;;24.00;73.00;;;;;;5071950;28;20094;-62
2022/07/20 05:45:53;;;;;;;20.45;18.25;;;24.00;72.80;;;;;;5067964;28;20055;-62
2022/07/20 05:48:18;;;;;;;19.65;16.92;;;24.10;73.00;;;;;;5070434;28;20108;-62
2022/07/20 05:50:44;;;;;;;20.48;17.77;;;24.10;72.60;;;;;;5065585;28;20029;-62
2022/07/20 05:53:11;;;;;;;22.00;17.63;;;24.20;72.80;;;;;;5063636;28;20032;-61
2022/07/20 05:55:38;;;;;;;25.08;18.67;;;24.10;72.60;;;;;;5059937;28;20067;-62
2022/07/20 05:58:05;;;;;;;24.80;18.23;;;24.20;72.70;;;;;;5063253;28;20569;-62
2022/07/20 06:00:31;;;;;;;23.98;17.38;;;24.20;72.50;;;;;;5059592;28;20032;-62
2022/07/20 06:02:57;;;;;;;23.88;17.30;;;24.20;72.70;;;;;;5083051;28;20123;-62
2022/07/20 06:05:22;;;;;;;22.55;16.95;;;24.30;72.80;;;;;;5071707;28;20099;-62
2022/07/20 06:07:48;;;;;;;22.40;16.38;;;24.30;72.70;;;;;;5059281;28;20056;-62
2022/07/20 06:10:14;;;;;;;16.90;15.10;;;24.30;72.40;;;;;;5051998;28;20067;-62
2022/07/20 06:12:40;;;;;;;19.33;15.27;;;24.30;72.20;;;;;;5052089;28;20055;-63
2022/07/20 06:15:05;;;;;;;25.17;17.02;;;24.40;72.00;;;;;;5071781;28;20020;-62
2022/07/20 06:17:38;;;;;;;20.55;16.15;;;24.50;71.70;;;;;;5071497;28;20042;-62
2022/07/20 06:20:14;;;;;;;24.40;16.08;;;24.50;71.10;;;;;;5052596;28;20485;-62
2022/07/20 06:22:42;;;;;;;20.67;15.10;;;24.50;70.90;;;;;;5052801;28;20047;-62
2022/07/20 06:25:09;;;;;;;21.90;15.13;;;24.50;70.60;;;;;;5053533;28;20131;-62
2022/07/20 06:27:35;;;;;;;19.67;15.18;;;24.60;70.40;;;;;;5056505;28;20526;-62
2022/07/20 06:30:02;;;;;;;22.73;14.32;;;24.60;69.90;;;;;;5065677;28;20029;-62
2022/07/20 06:32:28;;;;;;;18.40;14.20;;;24.70;69.80;;;;;;5059879;28;20036;-62
2022/07/20 06:34:53;;;;;;;16.60;14.32;;;24.70;70.00;;;;;;5088032;28;20468;-62
2022/07/20 06:37:19;;;;;;;17.10;12.18;;;24.70;69.30;;;;;;5068834;28;20500;-62
2022/07/20 06:39:45;;;;;;;20.83;12.15;;;24.80;69.80;;;;;;5075279;28;20033;-62
2022/07/20 06:42:11;;;;;;;17.55;12.55;;;24.80;68.80;;;;;;5072442;28;20024;-62
2022/07/20 06:44:37;;;;;;;18.17;11.85;;;24.90;68.60;;;;;;5059970;28;20139;-62
2022/07/20 06:47:03;;;;;;;14.88;12.27;;;24.90;68.40;;;;;;5055339;28;20381;-62
2022/07/20 06:49:29;;;;;;;16.77;11.75;;;25.00;68.30;;;;;;5058089;28;20504;-62
2022/07/20 06:51:55;;;;;;;18.13;11.52;;;25.10;68.30;;;;;;5069648;28;20476;-62
2022/07/20 06:54:20;;;;;;;19.17;11.70;;;25.10;68.20;;;;;;5070366;28;20537;-62
2022/07/20 06:56:46;;;;;;;18.02;12.07;;;25.20;67.80;;;;;;5083152;28;20025;-62
2022/07/20 06:59:11;;;;;;;12.70;10.32;;;25.20;67.60;;;;;;5061738;28;20048;-62
2022/07/20 07:01:37;;;;;;;18.00;11.13;;;25.20;67.40;;;;;;5061961;28;20465;-62
2022/07/20 07:04:03;;;;;;;14.40;10.60;;;25.20;67.30;;;;;;5066036;28;20048;-62
2022/07/20 07:06:30;;;;;;;15.98;9.30;;;25.30;67.40;;;;;;5071817;28;20076;-62
2022/07/20 07:08:56;;;;;;;19.42;10.90;;;25.40;67.60;;;;;;5063339;28;20025;-62
2022/07/20 07:11:22;;;;;;;15.85;10.68;;;25.40;67.50;;;;;;5083046;28;20112;-63
2022/07/20 07:13:47;;;;;;;14.00;10.20;;;25.50;67.50;;;;;;5059822;28;20108;-62
2022/07/20 07:16:13;;;;;;;14.52;9.73;;;25.60;67.40;;;;;;5062728;28;20074;-62
2022/07/20 07:18:38;;;;;;;13.82;9.13;;;25.70;67.50;;;;;;5072397;28;20458;-62
2022/07/20 07:21:04;;;;;;;15.57;9.80;;;25.70;66.70;;;;;;5061440;28;20441;-62
2022/07/20 07:23:30;;;;;;;14.93;9.27;;;25.70;66.70;;;;;;5062325;28;20051;-61
2022/07/20 07:25:56;;;;;;;17.08;9.95;;;25.70;66.50;;;;;;5071036;28;20468;-62
2022/07/20 07:28:21;;;;;;;15.13;9.40;;;25.70;66.40;;;;;;5074199;28;20035;-62
2022/07/20 07:30:50;;;;;;;13.15;9.02;;;25.70;66.60;;;;;;5067421;28;20024;-61
2022/07/20 07:33:16;;;;;;;12.77;8.63;;;25.80;66.40;;;;;;5076674;28;20024;-62
2022/07/20 07:35:41;;;;;;;14.60;9.35;;;25.70;66.10;;;;;;5080391;28;20052;-62
2022/07/20 07:38:07;;;;;;;13.75;8.75;;;25.70;65.90;;;;;;5086359;28;20057;-62
2022/07/20 07:40:32;;;;;;;14.40;9.32;;;25.70;66.10;;;;;;5067427;28;20078;-62
2022/07/20 07:42:58;;;;;;;13.93;8.68;;;25.70;66.40;;;;;;5061418;28;20400;-62
2022/07/20 07:45:24;;;;;;;13.48;8.65;;;25.70;66.30;;;;;;5060975;28;20056;-62
2022/07/20 07:47:49;;;;;;;10.27;7.85;;;25.80;65.90;;;;;;5063272;28;20107;-62
2022/07/20 07:50:15;;;;;;;13.57;8.82;;;25.80;65.80;;;;;;5074002;28;20024;-62
2022/07/20 07:52:40;;;;;;;12.05;8.20;;;25.80;65.40;;;;;;5068191;28;20078;-62
2022/07/20 07:55:08;;;;;;;12.65;8.25;;;25.80;65.50;;;;;;5068348;28;20111;-62
2022/07/20 07:57:34;;;;;;;13.67;8.67;;;25.90;65.70;;;;;;5061304;28;20044;-62
2022/07/20 07:59:59;;;;;;;10.25;7.30;;;25.90;65.80;;;;;;5055558;28;20036;-62
2022/07/20 08:02:54;;;;;;;11.25;7.85;;;25.90;66.00;;;;;;5063788;28;20384;-62
2022/07/20 08:05:20;;;;;;;12.50;8.82;;;26.00;65.90;;;;;;5063674;28;20835;-62
2022/07/20 08:07:46;;;;;;;13.18;7.63;;;26.10;65.90;;;;;;5056856;28;20103;-62
2022/07/20 08:10:12;;;;;;;12.50;8.48;;;26.10;65.80;;;;;;5057095;28;20417;-62
2022/07/20 08:12:38;;;;;;;13.18;8.63;;;26.10;65.90;;;;;;5063071;28;20465;-62
2022/07/20 08:15:04;;;;;;;10.35;7.93;;;26.20;66.00;;;;;;5070798;28;20508;-62
2022/07/20 08:17:30;;;;;;;11.73;8.00;;;26.30;66.00;;;;;;5061808;28;20027;-62
2022/07/20 08:19:56;;;;;;;10.65;7.88;;;26.40;66.10;;;;;;5064212;28;20024;-62
2022/07/20 08:22:21;;;;;;;10.85;7.50;;;26.50;65.60;;;;;;5067637;28;20444;-62
2022/07/20 08:24:47;;;;;;;10.70;7.68;;;26.50;65.40;;;;;;5056801;28;20362;-62
2022/07/20 08:27:12;;;;;;;8.30;6.80;;;26.50;65.00;;;;;;5066465;28;20021;-62
2022/07/20 08:29:38;;;;;;;10.95;7.78;;;26.60;64.60;;;;;;5063808;28;20358;-62
2022/07/20 08:32:03;;;;;;;10.52;7.47;;;26.60;64.40;;;;;;5067589;28;20022;-62
2022/07/20 08:34:29;;;;;;;13.48;8.52;;;26.50;64.50;;;;;;5065393;28;20024;-62
2022/07/20 08:36:54;;;;;;;11.23;8.10;;;26.60;64.60;;;;;;5055887;28;20032;-62
2022/07/20 08:39:20;;;;;;;12.43;7.68;;;26.60;64.60;;;;;;5057042;28;20036;-62
2022/07/20 08:41:46;;;;;;;12.68;7.15;;;26.60;64.70;;;;;;5061421;28;20067;-62
2022/07/20 08:44:11;;;;;;;8.32;6.85;;;26.70;64.60;;;;;;5068610;28;20036;-62
2022/07/20 08:46:37;;;;;;;11.00;7.80;;;26.80;64.60;;;;;;5053102;28;20029;-62
2022/07/20 08:49:03;;;;;;;11.45;7.65;;;26.90;64.50;;;;;;5052732;28;20074;-62
2022/07/20 08:51:29;;;;;;;10.55;7.38;;;27.00;64.20;;;;;;5068325;28;20024;-62
2022/07/20 08:53:56;;;;;;;10.48;7.65;;;27.10;63.90;;;;;;5068775;28;20032;-62
2022/07/20 08:56:22;;;;;;;14.15;8.05;;;27.20;64.10;;;;;;5053110;28;20021;-61
2022/07/20 08:58:48;;;;;;;11.02;7.32;;;27.30;64.20;;;;;;5053084;28;20124;-62
2022/07/20 09:01:17;;;;;;;9.18;6.75;;;27.40;64.10;;;;;;5052853;28;20053;-62
2022/07/20 09:03:46;;;;;;;9.95;7.53;;;27.60;64.00;;;;;;5062392;28;20025;-62
2022/07/20 09:06:12;;;;;;;9.43;6.95;;;27.60;63.60;;;;;;5055148;28;20078;-62
2022/07/20 09:09:05;;;;;;;10.23;6.95;;;27.70;63.30;;;;;;5062762;28;20032;-62
2022/07/20 09:11:32;;;;;;;10.95;6.75;;;27.80;63.00;;;;;;5060320;28;20017;-62
2022/07/20 09:13:58;;;;;;;8.90;6.68;;;27.90;62.90;;;;;;5072178;28;20444;-62
2022/07/20 09:16:50;;;;;;;9.98;6.78;;;28.00;62.80;;;;;;5072485;28;20040;-62
2022/07/20 09:19:16;;;;;;;8.13;6.60;;;28.10;62.60;;;;;;5069029;28;20116;-61
2022/07/20 09:21:42;;;;;;;9.45;7.50;;;28.10;62.00;;;;;;5072778;28;20104;-62
2022/07/20 09:24:09;;;;;;;13.82;8.07;;;28.10;61.80;;;;;;5066813;28;20020;-62
2022/07/20 09:26:36;;;;;;;10.27;7.00;;;28.20;61.50;;;;;;5064049;28;20522;-62
2022/07/20 09:29:05;;;;;;;8.48;6.55;;;28.30;61.40;;;;;;5060431;28;20497;-62
2022/07/20 09:31:38;;;;;;;10.20;7.03;;;28.40;61.30;;;;;;5074532;28;20028;-62
2022/07/20 09:34:04;;;;;;;12.35;7.20;;;28.40;61.20;;;;;;5065512;28;20415;-62
2022/07/20 09:36:32;;;;;;;9.57;6.82;;;28.50;61.40;;;;;;5051285;28;20062;-62
2022/07/20 09:39:14;;;;;;;10.55;7.32;;;28.50;61.10;;;;;;5052683;28;20035;-62
2022/07/20 09:41:50;;;;;;;9.50;7.07;;;28.60;60.40;;;;;;5072429;28;20472;-62
2022/07/20 09:44:24;;;;;;;9.70;7.78;;;28.60;59.80;;;;;;5063715;28;20051;-62
2022/07/20 09:47:10;;;;;;;12.73;7.78;;;28.60;59.60;;;;;;5068168;28;20123;-62
2022/07/20 09:49:37;;;;;;;9.45;6.75;;;28.60;59.20;;;;;;5071106;28;20358;-62
2022/07/20 09:52:04;;;;;;;8.50;6.80;;;28.60;58.90;;;;;;5069759;28;20127;-62
2022/07/20 09:54:30;;;;;;;9.95;7.28;;;28.70;58.70;;;;;;5069371;28;20066;-62
2022/07/20 09:56:56;;;;;;;8.77;6.82;;;28.80;58.40;;;;;;5066327;28;20021;-62
2022/07/20 09:59:21;;;;;;;9.20;6.75;;;28.90;58.00;;;;;;5071107;28;20400;-62
2022/07/20 10:01:53;;;;;;;8.93;6.70;;;28.80;57.80;;;;;;5070479;28;20025;-62
2022/07/20 10:04:19;;;;;;;8.25;7.30;;;28.90;57.80;;;;;;5073373;28;20032;-62
2022/07/20 10:06:50;;;;;;;8.68;7.20;;;29.00;58.00;;;;;;5073177;28;20395;-62
2022/07/20 10:09:21;;;;;;;8.75;6.82;;;28.90;58.10;;;;;;5059943;28;20107;-62
2022/07/20 10:11:47;;;;;;;10.32;7.22;;;29.00;58.00;;;;;;5084924;28;20374;-62
2022/07/20 10:14:17;;;;;;;8.90;8.00;;;29.10;58.00;;;;;;5084672;28;20060;-62
2022/07/20 10:16:46;;;;;;;9.55;6.75;;;29.20;57.90;;;;;;5078900;28;20032;-62
2022/07/20 10:19:12;;;;;;;8.00;7.20;;;29.30;57.50;;;;;;5069685;28;20074;-62
2022/07/20 10:21:37;;;;;;;8.13;6.30;;;29.30;57.10;;;;;;5071876;28;20108;-62
2022/07/20 10:24:18;;;;;;;7.85;5.82;;;29.40;56.30;;;;;;5069705;28;20385;-62
2022/07/20 10:26:52;;;;;;;8.85;6.40;;;29.50;55.70;;;;;;5076028;28;20025;-62
2022/07/20 10:29:32;;;;;;;9.32;6.15;;;29.50;55.40;;;;;;5070822;28;20438;-62
2022/07/20 10:32:20;;;;;;;5.82;5.13;;;29.40;55.00;;;;;;5070451;28;20040;-62
2022/07/20 10:34:49;;;;;;;7.57;5.25;;;29.40;55.00;;;;;;5070144;28;20477;-62
2022/07/20 10:37:23;;;;;;;6.43;5.47;;;29.40;55.00;;;;;;5072811;28;20043;-62
2022/07/20 10:39:53;;;;;;;7.13;5.60;;;29.60;54.90;;;;;;5072369;28;20028;-62
2022/07/20 10:42:22;;;;;;;7.63;5.55;;;29.70;54.80;;;;;;5066612;28;20022;-62
2022/07/20 10:44:48;;;;;;;6.72;6.00;;;29.80;54.60;;;;;;5071954;28;20024;-62
2022/07/20 10:47:43;;;;;;;7.35;5.35;;;29.90;54.70;;;;;;5066588;28;20111;-62
2022/07/20 10:50:16;;;;;;;8.07;5.93;;;30.00;54.60;;;;;;5071277;28;20027;-62
2022/07/20 10:52:41;;;;;;;6.75;5.25;;;30.00;54.70;;;;;;5072925;28;20043;-62
2022/07/20 10:55:32;;;;;;;8.75;5.80;;;30.20;54.50;;;;;;5061600;28;20092;-62
2022/07/20 10:57:59;;;;;;;5.63;4.70;;;30.30;54.40;;;;;;5061764;28;20127;-62
2022/07/20 11:00:30;;;;;;;6.35;5.60;;;30.50;54.30;;;;;;5058352;28;20040;-62
2022/07/20 11:02:57;;;;;;;5.50;4.80;;;30.70;53.60;;;;;;5057673;28;20499;-62
2022/07/20 11:05:23;;;;;;;6.70;5.25;;;30.80;53.10;;;;;;5055209;28;20037;-62
2022/07/20 11:07:49;;;;;;;6.68;4.88;;;31.00;53.00;;;;;;5085013;28;20024;-62
2022/07/20 11:10:24;;;;;;;5.32;3.90;;;31.10;52.60;;;;;;5068035;28;20021;-62
2022/07/20 11:13:02;;;;;;;5.35;4.85;;;31.10;52.40;;;;;;5068246;28;20035;-62
2022/07/20 11:15:40;;;;;;;5.78;4.68;;;31.20;52.20;;;;;;5070298;28;20477;-62
2022/07/20 11:18:07;;;;;;;5.78;4.70;;;31.30;52.30;;;;;;5060143;28;20031;-62
2022/07/20 11:20:33;;;;;;;7.07;4.70;;;31.40;52.30;;;;;;5067861;28;20021;-62
2022/07/20 11:23:01;;;;;;;6.18;4.88;;;31.50;51.80;;;;;;5070234;28;20035;-63
2022/07/20 11:25:28;;;;;;;5.45;4.25;;;31.50;51.50;;;;;;5067620;28;20060;-63
2022/07/20 11:28:01;;;;;;;6.43;4.25;;;31.70;51.70;;;;;;5063660;28;20473;-62
2022/07/20 11:30:36;;;;;;;4.90;4.35;;;31.80;51.30;;;;;;5056403;28;20049;-62
2022/07/20 11:33:02;;;;;;;5.05;4.43;;;31.90;51.00;;;;;;5067134;28;20078;-62
2022/07/20 11:35:28;;;;;;;6.05;4.30;;;31.90;50.90;;;;;;5058576;28;20017;-62
2022/07/20 11:37:53;;;;;;;5.60;4.28;;;31.90;50.10;;;;;;5063863;28;20044;-63
2022/07/20 11:40:21;;;;;;;4.70;4.18;;;32.00;50.00;;;;;;5062898;28;20026;-62
2022/07/20 11:43:06;;;;;;;5.85;3.45;;;32.00;49.80;;;;;;5065326;28;20048;-62
2022/07/20 11:45:32;;;;;;;5.28;3.95;;;32.20;49.70;;;;;;5055868;28;20029;-62
2022/07/20 11:47:58;;;;;;;4.20;3.50;;;32.30;49.60;;;;;;5063202;28;20472;-63
2022/07/20 11:50:32;;;;;;;5.18;3.80;;;32.40;49.60;;;;;;5059670;28;20052;-63
2022/07/20 11:52:57;;;;;;;5.43;3.63;;;32.60;49.30;;;;;;5061222;28;20013;-62
2022/07/20 11:55:41;;;;;;;4.25;3.35;;;32.80;48.60;;;;;;5071420;28;20495;-63
2022/07/20 11:58:08;;;;;;;4.93;3.70;;;33.00;48.40;;;;;;5056064;28;20048;-62
2022/07/20 12:00:33;;;;;;;4.03;3.28;;;33.00;48.10;;;;;;5056293;28;20448;-62
2022/07/20 12:02:59;;;;;;;4.38;3.35;;;33.10;47.90;;;;;;5067980;28;20044;-62
2022/07/20 12:05:25;;;;;;;5.10;4.00;;;33.30;47.90;;;;;;5055421;28;20099;-63
2022/07/20 12:10:35;;;;;;;4.50;3.70;;;33.40;47.40;;;;;;5058733;28;20063;-63
2022/07/20 12:13:07;;;;;;;4.35;3.38;;;33.30;47.20;;;;;;5060896;28;20060;-62
2022/07/20 12:15:33;;;;;;;4.45;3.25;;;33.20;47.60;;;;;;5071687;28;20442;-63
2022/07/20 12:17:59;;;;;;;4.40;3.80;;;33.10;47.70;;;;;;5069261;28;20028;-62
2022/07/20 12:20:26;;;;;;;4.30;3.75;;;33.20;47.90;;;;;;5069717;28;20052;-62
2022/07/20 12:22:59;;;;;;;4.15;3.53;;;33.40;48.30;;;;;;5062498;28;20115;-63
2022/07/20 12:25:40;;;;;;;4.28;3.47;;;33.40;48.40;;;;;;5065647;28;20583;-62
2022/07/20 12:28:06;;;;;;;4.25;3.20;;;33.50;48.40;;;;;;5053384;28;20028;-62
2022/07/20 12:30:36;;;;;;;8.55;4.63;;;33.50;48.10;;;;;;5058381;28;20017;-62
2022/07/20 12:33:12;;;;;;;5.35;4.03;;;33.50;47.60;;;;;;5077283;28;20115;-62
2022/07/20 12:35:41;;;;;;;6.68;4.78;;;33.50;47.30;;;;;;5067537;28;20021;-62
2022/07/20 12:38:07;;;;;;;5.55;4.05;;;33.40;47.50;;;;;;5053669;28;20025;-63
2022/07/20 12:40:46;;;;;;;6.35;4.38;;;33.50;47.80;;;;;;5053488;28;20032;-62
2022/07/20 12:43:30;;;;;;;7.90;4.25;;;33.70;46.80;;;;;;5053356;28;20032;-63
2022/07/20 12:45:58;;;;;;;6.18;4.10;;;33.40;46.30;;;;;;5062189;28;20392;-63
2022/07/20 12:48:24;;;;;;;4.47;3.85;;;33.40;46.60;;;;;;5056643;28;20601;-63